Terminal Aerodrome Forecast
Issued by NWS Charleston, WV

Current Version | Previous Version | Text Only | Print | Product List | Glossary Off
Versions: 1 2 3 4 5 6 7 8 9 10 11 12 13 14 15 16 17 18 19 20 21 22 23 24 25

000
FTUS41 KRLX 201753
TAFCRW
TAF
KCRW 201753Z 2018/2118 20005KT 6SM -SHRA OVC080
     FM202100 20004KT P6SM BKN050
     FM210100 18006KT 6SM -SHRA OVC040
     FM210500 22007KT 4SM -SHRA OVC030
     FM210800 25006KT 4SM -SHRA SCT008 OVC015
     FM211400 33004KT 6SM BR OVC010=

USA.gov is the U.S. government's official web portal to all federal, state and local government web resources and services.